Time;durP1;ratioP1;P1;durP2;ratioP2;P2;SDS_P1;SDS_P2;PMS_P1;PMS_P2;Temp;Humidity;BMP_temperature;BMP_pressure;BME280_temperature;BME280_humidity;BME280_pressure;Samples;Min_cycle;Max_cycle;Signal;HPM_P1;HPM_P2
2020/12/11 00:00:11;;;;;;;2.03;1.90;;;0.60;99.90;;;;;;4431496;32;20123;-58
2020/12/11 00:02:37;;;;;;;9.02;3.08;;;0.60;99.90;;;;;;4431877;32;20057;-53
2020/12/11 00:05:03;;;;;;;2.87;1.92;;;0.50;99.90;;;;;;4430165;32;20116;-57
2020/12/11 00:07:32;;;;;;;1.42;1.33;;;0.60;99.90;;;;;;4417535;32;20069;-57
2020/12/11 00:09:58;;;;;;;4.82;2.45;;;0.70;99.90;;;;;;4431484;32;20070;-55
2020/12/11 00:12:23;;;;;;;12.52;2.62;;;0.70;99.90;;;;;;4431532;32;20069;-57
2020/12/11 00:14:49;;;;;;;1.67;1.02;;;0.70;99.90;;;;;;4430676;32;20096;-58
2020/12/11 00:17:14;;;;;;;4.20;2.75;;;0.70;99.90;;;;;;4430438;32;20126;-54
2020/12/11 00:19:40;;;;;;;5.62;3.30;;;0.70;99.90;;;;;;4431288;32;20186;-53
2020/12/11 00:22:05;;;;;;;2.08;1.37;;;0.80;99.90;;;;;;4431755;32;20086;-58
2020/12/11 00:24:31;;;;;;;2.72;2.00;;;0.80;99.90;;;;;;4429980;32;20388;-54
2020/12/11 00:26:57;;;;;;;1.33;1.27;;;0.90;99.90;;;;;;4431231;32;20061;-55
2020/12/11 00:29:22;;;;;;;2.33;1.58;;;0.90;99.90;;;;;;4430040;32;20069;-58
2020/12/11 00:31:48;;;;;;;1.37;1.27;;;0.80;99.90;;;;;;4431066;32;20061;-55
2020/12/11 00:34:14;;;;;;;1.48;1.37;;;0.70;99.90;;;;;;4431163;32;20061;-58
2020/12/11 00:36:40;;;;;;;1.65;1.55;;;0.70;99.90;;;;;;4416801;32;20061;-55
2020/12/11 00:39:05;;;;;;;2.62;1.95;;;0.70;99.90;;;;;;4429973;32;20124;-54
2020/12/11 00:41:31;;;;;;;4.37;2.12;;;0.70;99.90;;;;;;4430296;32;20066;-58
2020/12/11 00:43:56;;;;;;;1.20;1.12;;;0.60;99.90;;;;;;4430577;32;20081;-57
2020/12/11 00:46:24;;;;;;;10.50;3.33;;;0.60;99.90;;;;;;4431050;32;20187;-54
2020/12/11 00:48:51;;;;;;;12.75;2.62;;;0.60;99.90;;;;;;4418002;32;20389;-58
2020/12/11 00:51:19;;;;;;;2.40;1.98;;;0.70;99.90;;;;;;4431219;32;20065;-57
2020/12/11 00:53:45;;;;;;;8.07;3.15;;;0.70;99.90;;;;;;4430978;32;20061;-53
2020/12/11 00:56:10;;;;;;;0.90;0.90;;;0.70;99.90;;;;;;4417006;32;20097;-55
2020/12/11 00:58:36;;;;;;;1.42;1.33;;;0.70;99.90;;;;;;4429788;32;20185;-57
2020/12/11 01:01:01;;;;;;;2.25;2.08;;;0.50;99.90;;;;;;4416063;32;20066;-54
2020/12/11 01:03:27;;;;;;;2.65;1.98;;;0.50;99.90;;;;;;4429715;32;20112;-53
2020/12/11 01:05:52;;;;;;;8.65;2.95;;;0.50;99.90;;;;;;4431035;32;20081;-55
2020/12/11 01:08:17;;;;;;;5.28;3.17;;;0.50;99.90;;;;;;4429543;32;20057;-54
2020/12/11 01:10:43;;;;;;;4.93;1.83;;;0.60;99.90;;;;;;4430980;32;20061;-55
2020/12/11 01:13:08;;;;;;;12.63;3.20;;;0.60;99.90;;;;;;4430493;32;20075;-54
2020/12/11 01:15:34;;;;;;;3.85;2.78;;;0.60;99.90;;;;;;4430114;32;20519;-56
2020/12/11 01:17:59;;;;;;;9.88;5.32;;;0.60;99.90;;;;;;4430430;32;20072;-57
2020/12/11 01:20:25;;;;;;;1.10;1.05;;;0.50;99.90;;;;;;4431312;32;20122;-54
2020/12/11 01:22:50;;;;;;;13.52;2.15;;;0.50;99.90;;;;;;4430075;32;20062;-55
2020/12/11 01:25:17;;;;;;;5.70;2.33;;;0.50;99.90;;;;;;4429704;32;20508;-53
2020/12/11 01:27:43;;;;;;;2.60;2.20;;;0.70;99.90;;;;;;4415817;32;20069;-56
2020/12/11 01:30:08;;;;;;;14.73;2.47;;;0.60;99.90;;;;;;4429809;32;20065;-57
2020/12/11 01:32:34;;;;;;;4.25;1.95;;;0.60;99.90;;;;;;4430733;32;20534;-57
2020/12/11 01:34:59;;;;;;;2.45;1.25;;;0.50;99.90;;;;;;4429486;32;20057;-55
2020/12/11 01:37:26;;;;;;;3.97;2.95;;;0.60;99.90;;;;;;4429332;32;20097;-56
2020/12/11 01:39:52;;;;;;;4.55;3.30;;;0.60;99.90;;;;;;4415826;32;20074;-57
2020/12/11 01:42:18;;;;;;;1.02;1.02;;;0.60;99.90;;;;;;4430327;32;20061;-56
2020/12/11 01:44:49;;;;;;;1.90;1.80;;;0.50;99.90;;;;;;4429994;32;20185;-52
2020/12/11 01:47:16;;;;;;;1.25;1.20;;;0.50;99.90;;;;;;4416492;32;20050;-52
2020/12/11 01:49:41;;;;;;;1.50;1.40;;;0.50;99.90;;;;;;4417243;32;20357;-54
2020/12/11 01:52:08;;;;;;;2.25;1.87;;;0.50;99.90;;;;;;4430029;32;20058;-57
2020/12/11 01:54:33;;;;;;;3.22;1.90;;;0.60;99.90;;;;;;4414704;32;20126;-57
2020/12/11 01:57:03;;;;;;;2.90;2.00;;;0.50;99.90;;;;;;4429603;32;20053;-55
2020/12/11 01:59:39;;;;;;;3.70;2.17;;;0.60;99.90;;;;;;4430030;32;20093;-57
2020/12/11 02:02:06;;;;;;;4.28;2.25;;;0.60;99.90;;;;;;4415781;32;20053;-56
2020/12/11 02:04:34;;;;;;;1.50;1.40;;;0.70;99.90;;;;;;4416690;32;20061;-53
2020/12/11 02:06:59;;;;;;;1.02;1.02;;;0.70;99.90;;;;;;4415908;32;20057;-57
2020/12/11 02:09:26;;;;;;;13.15;1.35;;;0.80;99.90;;;;;;4416905;32;20085;-58
2020/12/11 02:11:52;;;;;;;21.92;3.35;;;0.80;99.90;;;;;;4431741;32;20066;-55
2020/12/11 02:14:18;;;;;;;11.10;2.50;;;0.80;99.90;;;;;;4418134;32;20065;-53
2020/12/11 02:16:44;;;;;;;2.30;1.37;;;0.80;99.90;;;;;;4432956;32;20108;-52
2020/12/11 02:19:10;;;;;;;0.62;0.62;;;0.60;99.90;;;;;;4416060;32;20078;-53
2020/12/11 02:21:36;;;;;;;1.95;1.58;;;0.70;99.90;;;;;;4417471;32;20065;-53
2020/12/11 02:24:01;;;;;;;1.20;1.10;;;0.70;99.90;;;;;;4418287;32;20194;-57
2020/12/11 02:26:27;;;;;;;1.70;1.58;;;0.70;99.90;;;;;;4415460;32;20062;-54
2020/12/11 02:28:52;;;;;;;3.50;1.85;;;0.60;99.90;;;;;;4415940;32;20437;-55
2020/12/11 02:31:18;;;;;;;3.35;2.55;;;0.60;99.90;;;;;;4415144;32;20117;-56
2020/12/11 02:33:43;;;;;;;8.73;3.42;;;0.70;99.90;;;;;;4416161;32;20404;-58
2020/12/11 02:36:09;;;;;;;2.25;2.05;;;0.70;99.90;;;;;;4415168;32;20472;-57
2020/12/11 02:38:35;;;;;;;12.00;3.58;;;0.80;99.90;;;;;;4415906;32;20082;-56
2020/12/11 02:41:02;;;;;;;1.27;1.17;;;0.80;99.90;;;;;;4416514;32;20057;-55
2020/12/11 02:43:28;;;;;;;3.62;2.50;;;0.80;99.90;;;;;;4415832;32;20417;-52
2020/12/11 02:45:55;;;;;;;1.45;1.35;;;0.80;99.90;;;;;;4416728;32;20053;-54
2020/12/11 02:48:21;;;;;;;1.92;1.77;;;0.70;99.90;;;;;;4414660;32;20062;-53
2020/12/11 02:50:47;;;;;;;6.95;2.05;;;0.80;99.90;;;;;;4415675;32;20066;-57
2020/12/11 02:53:13;;;;;;;1.55;1.45;;;0.70;99.90;;;;;;4416151;32;20066;-53
2020/12/11 02:55:38;;;;;;;21.73;3.22;;;0.80;99.90;;;;;;4416256;32;20073;-55
2020/12/11 02:58:04;;;;;;;10.43;2.15;;;0.80;99.90;;;;;;4416651;32;20086;-55
2020/12/11 03:00:30;;;;;;;15.50;3.50;;;0.80;99.90;;;;;;4417060;32;20078;-58
2020/12/11 03:02:55;;;;;;;1.23;1.15;;;0.70;99.90;;;;;;4416011;32;20082;-57
2020/12/11 03:05:21;;;;;;;4.45;1.80;;;0.70;99.90;;;;;;4414836;32;20081;-56
2020/12/11 03:07:46;;;;;;;1.50;1.40;;;0.60;99.90;;;;;;4415268;32;20377;-55
2020/12/11 03:10:12;;;;;;;5.20;2.28;;;0.80;99.90;;;;;;4416703;32;20110;-57
2020/12/11 03:12:38;;;;;;;16.52;2.67;;;0.70;99.90;;;;;;4415393;32;20529;-55
2020/12/11 03:15:04;;;;;;;2.33;2.12;;;0.70;99.90;;;;;;4414760;32;20099;-57
2020/12/11 03:17:29;;;;;;;3.25;1.80;;;0.70;99.90;;;;;;4414661;32;20078;-57
2020/12/11 03:19:55;;;;;;;3.53;2.28;;;0.70;99.90;;;;;;4416106;32;20087;-56
2020/12/11 03:22:20;;;;;;;2.78;2.00;;;0.70;99.90;;;;;;4418754;32;20077;-53
2020/12/11 03:24:46;;;;;;;1.58;1.30;;;0.60;99.90;;;;;;4417912;32;20127;-58
2020/12/11 03:27:11;;;;;;;1.87;1.67;;;0.60;99.90;;;;;;4430552;32;20121;-53
2020/12/11 03:29:37;;;;;;;2.22;1.95;;;0.50;99.90;;;;;;4441279;32;20120;-54
2020/12/11 03:32:03;;;;;;;2.03;1.87;;;0.60;99.90;;;;;;4439478;32;20081;-53
2020/12/11 03:34:29;;;;;;;9.20;2.47;;;0.60;99.90;;;;;;4415147;32;20062;-56
2020/12/11 03:36:54;;;;;;;1.62;1.52;;;0.70;99.90;;;;;;4415375;32;20058;-57
2020/12/11 03:39:19;;;;;;;4.20;3.30;;;0.80;99.90;;;;;;4416369;32;20538;-57
2020/12/11 03:41:53;;;;;;;9.50;1.58;;;0.80;99.90;;;;;;4415384;32;20058;-56
2020/12/11 03:44:19;;;;;;;1.62;1.45;;;0.80;99.90;;;;;;4431421;32;20073;-55
2020/12/11 03:46:45;;;;;;;3.67;2.17;;;0.80;99.90;;;;;;4433527;32;20534;-58
2020/12/11 03:49:11;;;;;;;6.95;2.87;;;0.70;99.90;;;;;;4447043;32;20057;-58
2020/12/11 03:51:37;;;;;;;18.73;2.08;;;0.70;99.90;;;;;;4446478;32;20064;-58
2020/12/11 03:54:03;;;;;;;1.30;1.23;;;0.80;99.90;;;;;;4431813;32;20056;-55
2020/12/11 03:56:29;;;;;;;4.07;2.50;;;0.70;99.90;;;;;;4432009;32;20081;-56
2020/12/11 03:58:54;;;;;;;0.60;0.60;;;0.60;99.90;;;;;;4416687;32;20062;-56
2020/12/11 04:01:21;;;;;;;7.90;3.70;;;0.60;99.90;;;;;;4415361;32;20078;-58
2020/12/11 04:03:47;;;;;;;0.88;0.88;;;0.70;99.90;;;;;;4414164;32;20109;-53
2020/12/11 04:06:15;;;;;;;6.90;2.58;;;0.70;99.90;;;;;;4416330;32;20065;-54
2020/12/11 04:08:42;;;;;;;2.90;2.37;;;0.80;99.90;;;;;;4430245;32;20070;-53
2020/12/11 04:11:10;;;;;;;16.02;3.37;;;0.70;99.90;;;;;;4417483;32;20530;-57
2020/12/11 04:13:36;;;;;;;3.58;2.78;;;0.70;99.90;;;;;;4420352;32;20081;-58
2020/12/11 04:16:02;;;;;;;2.97;2.30;;;0.80;99.90;;;;;;4432135;32;20077;-55
2020/12/11 04:18:28;;;;;;;1.45;1.35;;;0.90;99.90;;;;;;4422829;32;20062;-57
2020/12/11 04:20:56;;;;;;;1.48;1.40;;;0.90;99.90;;;;;;4414794;32;20279;-56
2020/12/11 04:23:22;;;;;;;12.13;3.22;;;0.80;99.90;;;;;;4415587;32;20057;-58
2020/12/11 04:25:48;;;;;;;5.68;2.85;;;0.70;99.90;;;;;;4414039;32;20066;-56
2020/12/11 04:28:13;;;;;;;1.55;1.25;;;0.70;99.90;;;;;;4415374;32;20070;-55
2020/12/11 04:30:39;;;;;;;6.57;2.33;;;0.70;99.90;;;;;;4414511;32;20124;-54
2020/12/11 04:33:04;;;;;;;2.85;2.08;;;0.60;99.90;;;;;;4415798;32;20386;-57
2020/12/11 04:35:30;;;;;;;1.02;1.02;;;0.50;99.90;;;;;;4415860;32;20077;-57
2020/12/11 04:37:55;;;;;;;4.90;3.50;;;0.50;99.90;;;;;;4415452;32;20086;-55
2020/12/11 04:40:21;;;;;;;10.85;4.10;;;0.50;99.90;;;;;;4415940;32;20120;-54
2020/12/11 04:42:47;;;;;;;1.77;1.62;;;0.60;99.90;;;;;;4415550;32;20061;-54
2020/12/11 04:45:13;;;;;;;2.58;2.35;;;0.60;99.90;;;;;;4414323;32;20066;-52
2020/12/11 04:47:43;;;;;;;3.35;2.15;;;0.60;99.90;;;;;;4413771;32;20078;-56
2020/12/11 04:50:15;;;;;;;4.55;3.22;;;0.60;99.90;;;;;;4414307;32;20140;-52
2020/12/11 04:52:43;;;;;;;1.20;1.20;;;0.60;99.90;;;;;;4429997;32;20502;-54
2020/12/11 04:55:16;;;;;;;4.28;2.50;;;0.70;99.90;;;;;;4429161;32;20120;-57
2020/12/11 04:57:47;;;;;;;18.50;1.33;;;0.70;99.90;;;;;;4430324;32;20066;-57
2020/12/11 05:00:14;;;;;;;3.83;2.35;;;0.70;99.90;;;;;;4431419;32;20085;-53
2020/12/11 05:02:40;;;;;;;9.90;4.22;;;0.70;99.90;;;;;;4430931;32;20057;-56
2020/12/11 05:05:06;;;;;;;2.95;1.75;;;0.60;99.90;;;;;;4424550;32;20505;-56
2020/12/11 05:07:33;;;;;;;4.25;2.33;;;0.70;99.90;;;;;;4414722;32;20073;-56
2020/12/11 05:09:58;;;;;;;2.03;1.05;;;0.70;99.90;;;;;;4414164;32;20531;-56
2020/12/11 05:12:24;;;;;;;2.97;2.37;;;0.70;99.90;;;;;;4413624;32;20062;-54
2020/12/11 05:14:59;;;;;;;1.37;1.20;;;0.60;99.90;;;;;;4428741;32;20065;-54
2020/12/11 05:17:28;;;;;;;1.73;1.27;;;0.50;99.90;;;;;;4429546;32;20384;-57
2020/12/11 05:19:54;;;;;;;4.47;2.85;;;0.60;99.90;;;;;;4400257;32;20066;-58
2020/12/11 05:22:21;;;;;;;0.73;0.73;;;0.60;99.90;;;;;;4397226;32;20117;-57
2020/12/11 05:24:49;;;;;;;1.52;1.42;;;0.50;99.90;;;;;;4411337;32;20081;-56
2020/12/11 05:27:37;;;;;;;1.80;1.23;;;0.60;99.90;;;;;;4422274;32;20066;-52
2020/12/11 05:30:19;;;;;;;1.27;1.23;;;0.50;99.90;;;;;;4404251;32;20066;-53
2020/12/11 05:32:47;;;;;;;2.30;1.75;;;0.50;99.90;;;;;;4407695;32;20116;-54
2020/12/11 05:35:22;;;;;;;5.28;1.45;;;0.50;99.90;;;;;;4397862;32;20122;-57
2020/12/11 05:37:53;;;;;;;1.50;1.40;;;0.50;99.90;;;;;;4410692;32;20078;-55
2020/12/11 05:40:28;;;;;;;5.10;2.35;;;0.50;99.90;;;;;;4428434;32;20081;-53
2020/12/11 05:43:13;;;;;;;1.83;1.70;;;0.50;99.90;;;;;;4428881;32;20540;-54
2020/12/11 05:45:56;;;;;;;1.12;1.00;;;0.50;99.90;;;;;;4430688;32;20068;-58
2020/12/11 05:48:25;;;;;;;1.87;1.70;;;0.60;99.90;;;;;;4431062;32;20113;-57
2020/12/11 05:50:51;;;;;;;1.20;0.90;;;0.50;99.90;;;;;;4431096;32;20121;-57
2020/12/11 05:53:17;;;;;;;2.03;1.45;;;0.60;99.90;;;;;;4431721;32;20108;-57
2020/12/11 05:55:42;;;;;;;1.12;1.12;;;0.70;99.90;;;;;;4432514;32;20577;-54
2020/12/11 05:58:10;;;;;;;0.93;0.93;;;0.60;99.90;;;;;;4432325;32;20483;-57
2020/12/11 06:00:38;;;;;;;1.83;1.35;;;0.60;99.90;;;;;;4430838;32;20119;-57
2020/12/11 06:03:06;;;;;;;1.25;1.15;;;0.50;99.90;;;;;;4413711;32;20238;-57
2020/12/11 06:05:38;;;;;;;0.95;0.95;;;0.60;99.90;;;;;;4414204;32;20206;-57
2020/12/11 06:08:08;;;;;;;1.30;1.27;;;0.70;99.90;;;;;;4415880;32;20459;-57
2020/12/11 06:10:34;;;;;;;1.75;1.40;;;0.80;99.90;;;;;;4401491;32;20061;-56
2020/12/11 06:13:03;;;;;;;2.58;2.35;;;0.80;99.90;;;;;;4414699;32;20074;-55
2020/12/11 06:15:36;;;;;;;11.43;3.15;;;0.90;99.90;;;;;;4414242;32;20078;-57
2020/12/11 06:18:14;;;;;;;2.42;1.40;;;0.90;99.90;;;;;;4385866;32;20078;-59
2020/12/11 06:20:40;;;;;;;8.73;3.15;;;0.80;99.90;;;;;;4411412;32;20074;-53
2020/12/11 06:23:27;;;;;;;11.23;3.90;;;0.70;99.90;;;;;;4415767;32;20519;-55
2020/12/11 06:25:58;;;;;;;1.45;1.35;;;0.80;99.90;;;;;;4414475;32;20066;-55
2020/12/11 06:28:42;;;;;;;6.00;3.50;;;0.90;99.90;;;;;;4415787;32;20090;-55
2020/12/11 06:31:11;;;;;;;1.08;1.08;;;0.80;99.90;;;;;;4417672;32;20388;-57
2020/12/11 06:33:38;;;;;;;13.98;4.30;;;0.80;99.90;;;;;;4395158;32;20628;-57
2020/12/11 06:36:05;;;;;;;1.70;1.60;;;0.90;99.90;;;;;;4404404;32;20058;-54
2020/12/11 06:38:52;;;;;;;3.47;2.45;;;1.00;99.90;;;;;;4425563;32;20066;-57
2020/12/11 06:41:35;;;;;;;2.58;2.05;;;1.00;99.90;;;;;;4404748;32;20077;-55
2020/12/11 06:44:14;;;;;;;4.85;1.87;;;0.90;99.90;;;;;;4423831;32;20073;-54
2020/12/11 06:46:39;;;;;;;7.40;2.83;;;1.00;99.90;;;;;;4417697;32;20409;-53
2020/12/11 06:49:20;;;;;;;3.97;3.35;;;1.00;99.90;;;;;;4432071;32;20065;-57
2020/12/11 06:51:48;;;;;;;1.37;1.00;;;0.90;99.90;;;;;;4422562;32;20120;-58
2020/12/11 06:54:19;;;;;;;3.22;2.67;;;1.00;99.90;;;;;;4418840;32;20109;-55
2020/12/11 06:56:47;;;;;;;3.80;2.85;;;1.10;99.90;;;;;;4423467;32;20514;-58
2020/12/11 06:59:23;;;;;;;11.50;3.67;;;1.00;99.90;;;;;;4409221;32;20066;-57
2020/12/11 07:01:52;;;;;;;4.10;2.22;;;1.00;99.90;;;;;;4423167;32;20065;-57
2020/12/11 07:04:18;;;;;;;4.78;2.47;;;0.90;99.90;;;;;;4407381;32;20467;-57
2020/12/11 07:06:53;;;;;;;2.80;2.00;;;1.00;99.90;;;;;;4419413;32;20073;-57
2020/12/11 07:09:20;;;;;;;10.43;2.50;;;1.00;99.90;;;;;;4406184;32;20412;-56
2020/12/11 07:11:46;;;;;;;5.72;3.05;;;0.90;99.90;;;;;;4406995;32;20106;-53
2020/12/11 07:14:12;;;;;;;2.42;2.03;;;1.00;99.90;;;;;;4408296;32;20443;-55
2020/12/11 07:16:39;;;;;;;1.85;1.48;;;1.00;99.90;;;;;;4428148;32;20185;-57
2020/12/11 07:19:05;;;;;;;1.23;1.15;;;1.00;99.90;;;;;;4422297;32;20065;-57
2020/12/11 07:21:33;;;;;;;1.37;1.20;;;1.00;99.90;;;;;;4412478;32;20073;-58
2020/12/11 07:24:00;;;;;;;5.28;3.60;;;1.00;99.90;;;;;;4410604;32;20053;-56
2020/12/11 07:26:25;;;;;;;2.47;1.67;;;1.00;99.90;;;;;;4426510;32;20074;-58
2020/12/11 07:29:10;;;;;;;2.50;0.95;;;1.10;99.90;;;;;;4428711;32;20085;-57
2020/12/11 07:31:41;;;;;;;25.05;2.42;;;1.10;99.90;;;;;;4411423;32;20065;-56
2020/12/11 07:34:24;;;;;;;;;;;1.10;99.90;;;;;;4424076;32;20168;-56
2020/12/11 07:36:55;;;;;;;0.60;0.60;;;1.10;99.90;;;;;;4421436;32;19950;-54
2020/12/11 07:39:23;;;;;;;3.85;2.60;;;1.10;99.90;;;;;;4409969;32;20065;-59
2020/12/11 07:41:49;;;;;;;4.85;3.62;;;1.00;99.90;;;;;;4422134;32;20085;-56
2020/12/11 07:44:33;;;;;;;12.80;2.58;;;1.00;99.90;;;;;;4403933;32;20089;-56
2020/12/11 07:47:02;;;;;;;4.85;3.12;;;1.20;99.90;;;;;;4418562;32;20673;-58
2020/12/11 07:49:37;;;;;;;4.22;2.92;;;1.20;99.90;;;;;;4412484;32;20058;-56
2020/12/11 07:52:02;;;;;;;6.82;1.60;;;1.20;99.90;;;;;;4420479;32;20074;-56
2020/12/11 07:54:36;;;;;;;7.37;3.00;;;1.20;99.90;;;;;;4428384;32;20057;-54
2020/12/11 07:57:19;;;;;;;3.15;2.70;;;1.20;99.90;;;;;;4426782;32;20072;-57
2020/12/11 08:00:04;;;;;;;1.45;1.15;;;1.10;99.90;;;;;;4421583;32;20154;-53
2020/12/11 08:02:31;;;;;;;0.98;0.98;;;1.10;99.90;;;;;;4416879;32;20530;-56
2020/12/11 08:04:57;;;;;;;1.65;1.52;;;1.10;99.90;;;;;;4417180;32;20133;-55
2020/12/11 08:07:27;;;;;;;4.43;2.58;;;1.20;99.90;;;;;;4427107;32;20124;-55
2020/12/11 08:09:54;;;;;;;3.80;2.60;;;1.10;99.90;;;;;;4422083;32;20070;-56
2020/12/11 08:12:22;;;;;;;2.40;1.85;;;1.20;99.90;;;;;;4409290;32;20162;-59
2020/12/11 08:14:48;;;;;;;2.00;1.70;;;1.10;99.90;;;;;;4407263;32;20077;-59
2020/12/11 08:17:15;;;;;;;2.35;2.15;;;1.10;99.90;;;;;;4421864;32;20120;-58
2020/12/11 08:19:42;;;;;;;2.15;1.98;;;1.20;99.90;;;;;;4416522;32;20074;-57
2020/12/11 08:22:16;;;;;;;2.30;2.17;;;1.20;99.90;;;;;;4422759;32;20491;-59
2020/12/11 08:24:43;;;;;;;1.00;1.00;;;1.30;99.90;;;;;;4425729;32;20133;-59
2020/12/11 08:27:28;;;;;;;8.30;2.97;;;1.30;99.90;;;;;;4410629;32;20102;-59
2020/12/11 08:30:12;;;;;;;1.77;1.67;;;1.30;99.90;;;;;;4415403;32;20406;-57
2020/12/11 08:32:37;;;;;;;5.20;3.95;;;1.30;99.90;;;;;;4409805;32;20078;-55
2020/12/11 08:35:20;;;;;;;5.50;2.53;;;1.20;99.90;;;;;;4412503;32;20229;-58
2020/12/11 08:37:56;;;;;;;1.40;1.33;;;1.20;99.90;;;;;;4408190;32;20069;-56
2020/12/11 08:40:22;;;;;;;4.07;1.92;;;1.30;99.90;;;;;;4413469;32;76334;-58
2020/12/11 08:43:06;;;;;;;1.42;1.35;;;1.20;99.90;;;;;;4407798;32;20195;-57
2020/12/11 08:45:36;;;;;;;4.47;2.37;;;1.40;99.90;;;;;;4420007;32;20054;-58
2020/12/11 08:48:42;;;;;;;1.55;1.45;;;1.30;99.90;;;;;;4421609;32;20543;-57
2020/12/11 08:50:56;;;;;;;1.55;1.25;;;1.20;99.90;;;;;;4396082;32;20427;-58
2020/12/11 08:53:25;;;;;;;4.15;3.22;;;1.10;99.90;;;;;;4423493;32;20081;-56
2020/12/11 08:55:50;;;;;;;1.90;1.60;;;1.20;99.90;;;;;;4414440;32;20106;-58
2020/12/11 08:58:16;;;;;;;24.20;2.60;;;1.20;99.90;;;;;;4420484;32;20062;-58
2020/12/11 09:00:41;;;;;;;1.20;1.10;;;1.10;99.90;;;;;;4417037;32;20077;-57
2020/12/11 09:03:07;;;;;;;3.05;1.80;;;1.10;99.90;;;;;;4423078;32;20073;-58
2020/12/11 09:05:32;;;;;;;3.75;1.25;;;1.10;99.90;;;;;;4420593;32;20057;-56
2020/12/11 09:07:59;;;;;;;11.95;1.62;;;1.10;99.90;;;;;;4409937;32;20065;-56
2020/12/11 09:10:25;;;;;;;4.82;2.30;;;1.10;99.90;;;;;;4421174;32;20140;-58
2020/12/11 09:12:53;;;;;;;2.00;1.55;;;1.20;99.90;;;;;;4407430;32;20073;-56
2020/12/11 09:15:19;;;;;;;1.48;1.37;;;1.20;99.90;;;;;;4420084;32;20077;-54
2020/12/11 09:17:49;;;;;;;2.35;1.62;;;1.20;99.90;;;;;;4411883;32;20496;-56
2020/12/11 09:20:15;;;;;;;1.65;1.55;;;1.20;99.90;;;;;;4422187;32;20078;-58
2020/12/11 09:22:40;;;;;;;1.00;1.00;;;1.30;99.90;;;;;;4420357;32;20066;-58
2020/12/11 09:25:06;;;;;;;3.83;1.92;;;1.40;99.90;;;;;;4419828;32;20550;-57
2020/12/11 09:27:34;;;;;;;0.88;0.88;;;1.40;99.90;;;;;;4413664;32;20087;-59
2020/12/11 09:30:14;;;;;;;0.90;0.90;;;1.30;99.90;;;;;;4408590;32;20136;-53
2020/12/11 09:32:51;;;;;;;1.00;1.00;;;1.40;99.90;;;;;;4422886;32;20514;-55
2020/12/11 09:35:18;;;;;;;7.65;1.87;;;1.30;99.90;;;;;;4420191;32;20106;-54
2020/12/11 09:37:49;;;;;;;2.55;1.58;;;1.30;99.90;;;;;;4421419;32;20124;-56
2020/12/11 09:40:16;;;;;;;0.82;0.80;;;1.40;99.90;;;;;;4430209;32;20066;-53
2020/12/11 09:43:03;;;;;;;0.88;0.88;;;1.40;99.90;;;;;;4426000;32;20117;-57
2020/12/11 09:45:32;;;;;;;2.70;2.03;;;1.40;99.90;;;;;;4411350;32;20132;-56
2020/12/11 09:48:08;;;;;;;3.80;1.93;;;1.40;99.90;;;;;;4426296;32;20069;-57
2020/12/11 09:50:42;;;;;;;48.03;3.25;;;1.40;99.90;;;;;;4425683;32;20488;-56
2020/12/11 09:53:19;;;;;;;2.17;1.52;;;1.40;99.90;;;;;;4415813;32;20123;-58
2020/12/11 09:55:49;;;;;;;1.45;1.35;;;1.40;99.90;;;;;;4426118;32;20085;-60
2020/12/11 09:58:14;;;;;;;1.10;1.10;;;1.40;99.90;;;;;;4426629;32;20061;-57
2020/12/11 10:00:43;;;;;;;2.85;1.77;;;1.30;99.90;;;;;;4423941;32;20565;-56
2020/12/11 10:03:12;;;;;;;3.22;2.28;;;1.30;99.90;;;;;;4424060;32;20156;-59
2020/12/11 10:05:37;;;;;;;3.05;1.77;;;1.30;99.90;;;;;;4422937;32;20179;-59
2020/12/11 10:08:03;;;;;;;4.07;1.70;;;1.30;99.90;;;;;;4412717;32;20125;-56
2020/12/11 10:10:28;;;;;;;2.05;1.10;;;1.40;99.90;;;;;;4421378;32;20075;-57
2020/12/11 10:12:54;;;;;;;1.85;1.45;;;1.40;99.90;;;;;;4421475;32;20127;-54
2020/12/11 10:15:22;;;;;;;1.65;1.37;;;1.50;99.90;;;;;;4415452;32;20162;-57
2020/12/11 10:17:49;;;;;;;12.18;2.85;;;1.50;99.90;;;;;;4412318;32;20423;-58
2020/12/11 10:20:21;;;;;;;2.45;2.25;;;1.40;99.90;;;;;;4406606;32;20078;-58
2020/12/11 10:22:48;;;;;;;1.67;1.50;;;1.50;99.90;;;;;;4406218;32;20061;-57
2020/12/11 10:25:15;;;;;;;2.15;1.73;;;1.70;99.90;;;;;;4405626;32;20130;-57
2020/12/11 10:27:42;;;;;;;3.00;1.52;;;1.70;99.90;;;;;;4405555;32;20101;-58
2020/12/11 10:30:07;;;;;;;2.37;1.35;;;1.70;99.90;;;;;;4398136;32;20181;-55
2020/12/11 10:32:33;;;;;;;3.28;2.47;;;1.70;99.90;;;;;;4423058;32;20078;-53
2020/12/11 10:34:58;;;;;;;4.70;2.87;;;1.70;99.90;;;;;;4422903;32;20085;-57
2020/12/11 10:37:24;;;;;;;2.83;1.83;;;1.70;99.90;;;;;;4423897;32;20085;-56
2020/12/11 10:39:50;;;;;;;1.87;1.15;;;1.60;99.90;;;;;;4410400;32;20058;-56
2020/12/11 10:42:16;;;;;;;2.40;1.85;;;1.50;99.90;;;;;;4408406;32;20073;-56
2020/12/11 10:44:41;;;;;;;3.40;1.40;;;1.60;99.90;;;;;;4421305;32;20082;-55
2020/12/11 10:47:07;;;;;;;0.95;0.95;;;1.60;99.90;;;;;;4420607;32;20097;-55
2020/12/11 10:49:33;;;;;;;2.65;1.10;;;1.60;99.90;;;;;;4426207;32;20112;-55
2020/12/11 10:51:58;;;;;;;5.30;2.85;;;1.60;99.90;;;;;;4422556;32;20116;-57
2020/12/11 10:54:27;;;;;;;4.62;1.95;;;1.50;99.90;;;;;;4424571;32;20088;-57
2020/12/11 10:56:53;;;;;;;2.45;2.05;;;1.60;99.90;;;;;;4420268;32;20140;-54
2020/12/11 10:59:18;;;;;;;1.67;1.52;;;1.60;99.90;;;;;;4409904;32;20075;-57
2020/12/11 11:01:45;;;;;;;4.90;1.65;;;1.60;99.90;;;;;;4421607;32;20066;-58
2020/12/11 11:04:10;;;;;;;10.50;2.83;;;1.80;99.90;;;;;;4422565;32;20094;-55
2020/12/11 11:06:39;;;;;;;7.32;2.00;;;1.80;99.90;;;;;;4422332;32;20130;-53
2020/12/11 11:09:15;;;;;;;2.28;1.85;;;1.80;99.90;;;;;;4423186;32;20077;-57
2020/12/11 11:11:45;;;;;;;0.75;0.75;;;1.80;99.90;;;;;;4399111;32;20077;-53
2020/12/11 11:14:18;;;;;;;1.02;1.02;;;1.70;99.90;;;;;;4405986;32;20069;-57
2020/12/11 11:19:22;;;;;;;1.65;1.55;;;1.90;99.90;;;;;;4415184;32;20065;-54
2020/12/11 11:22:11;;;;;;;1.12;1.08;;;1.80;99.90;;;;;;4404624;32;20444;-57
2020/12/11 11:24:51;;;;;;;1.45;1.35;;;1.90;99.90;;;;;;4408478;32;20066;-55
2020/12/11 11:27:40;;;;;;;9.68;1.73;;;1.80;99.90;;;;;;4417295;32;20066;-56
2020/12/11 11:30:04;;;;;;;7.53;4.00;;;1.90;99.90;;;;;;4410510;32;20423;-54
2020/12/11 11:32:29;;;;;;;0.77;0.77;;;1.80;99.90;;;;;;4421135;32;20057;-56
2020/12/11 11:34:56;;;;;;;1.23;1.12;;;1.90;99.90;;;;;;4401364;32;20057;-57
2020/12/11 11:37:22;;;;;;;1.40;1.33;;;2.00;99.90;;;;;;4407183;32;20057;-53
2020/12/11 11:39:48;;;;;;;4.47;1.70;;;1.90;99.90;;;;;;4425677;32;20058;-55
2020/12/11 11:42:14;;;;;;;2.35;1.12;;;2.00;99.90;;;;;;4419431;32;20085;-55
2020/12/11 11:44:49;;;;;;;8.32;2.28;;;2.00;99.90;;;;;;4408482;32;20518;-55
2020/12/11 11:47:14;;;;;;;0.70;0.70;;;2.10;99.90;;;;;;4418064;32;20410;-52
2020/12/11 11:50:10;;;;;;;1.15;1.12;;;2.10;99.90;;;;;;4421740;32;20086;-57
2020/12/11 11:52:33;;;;;;;3.75;1.83;;;2.10;99.90;;;;;;4413524;32;20151;-55
2020/12/11 11:54:59;;;;;;;2.55;1.75;;;2.00;99.90;;;;;;4423221;32;20053;-57
2020/12/11 11:57:26;;;;;;;1.50;1.02;;;2.00;99.90;;;;;;4417557;32;20525;-56
2020/12/11 11:59:51;;;;;;;1.67;1.55;;;2.00;99.90;;;;;;4410888;32;20077;-56
2020/12/11 12:02:17;;;;;;;4.22;2.25;;;2.00;99.90;;;;;;4405496;32;20201;-53
2020/12/11 12:04:42;;;;;;;7.05;1.90;;;1.90;99.90;;;;;;4417557;32;20479;-55
2020/12/11 12:07:08;;;;;;;1.85;1.75;;;2.00;99.90;;;;;;4421812;32;20062;-56
2020/12/11 12:09:33;;;;;;;2.53;1.85;;;2.10;99.90;;;;;;4419686;32;20082;-56
2020/12/11 12:12:00;;;;;;;2.37;1.87;;;2.20;99.90;;;;;;4405630;32;20132;-54
2020/12/11 12:14:25;;;;;;;10.40;3.05;;;2.20;99.90;;;;;;4425349;32;20104;-55
2020/12/11 12:16:52;;;;;;;4.65;2.45;;;2.30;99.90;;;;;;4420474;32;20332;-56
2020/12/11 12:19:26;;;;;;;2.50;1.42;;;2.30;99.90;;;;;;4426768;32;20149;-54
2020/12/11 12:29:36;;;;;;;3.62;2.47;;;2.40;99.90;;;;;;4409037;32;20467;-56
2020/12/11 12:32:09;;;;;;;3.83;2.67;;;2.40;99.90;;;;;;4408057;32;20070;-55
2020/12/11 12:37:23;;;;;;;1.62;1.52;;;2.50;99.90;;;;;;4412231;32;20057;-57
2020/12/11 12:45:04;;;;;;;7.43;2.67;;;2.40;99.90;;;;;;4419163;32;20070;-53
2020/12/11 12:47:30;;;;;;;1.60;1.50;;;2.50;99.90;;;;;;4419844;32;20093;-56
2020/12/11 12:49:55;;;;;;;1.37;1.27;;;2.50;99.90;;;;;;4405641;32;20057;-57
2020/12/11 12:52:21;;;;;;;13.85;2.40;;;2.50;99.90;;;;;;4416020;32;20097;-56
2020/12/11 12:54:46;;;;;;;2.15;1.80;;;2.50;99.90;;;;;;4417674;32;20057;-56
2020/12/11 12:57:18;;;;;;;3.35;2.05;;;2.50;99.90;;;;;;4422288;32;20105;-57
2020/12/11 12:59:53;;;;;;;1.45;1.30;;;2.50;99.90;;;;;;4418522;32;20557;-58
2020/12/11 13:05:18;;;;;;;2.95;2.62;;;2.60;99.90;;;;;;4417490;32;20101;-54
2020/12/11 13:07:32;;;;;;;6.70;2.83;;;2.60;99.90;;;;;;4408737;32;20085;-53
2020/12/11 13:09:58;;;;;;;3.45;2.50;;;2.60;99.90;;;;;;4420858;32;20160;-55
2020/12/11 13:12:24;;;;;;;2.12;1.90;;;2.60;99.90;;;;;;4422715;32;20066;-54
2020/12/11 13:14:50;;;;;;;6.00;2.92;;;2.80;99.90;;;;;;4417674;32;20050;-57
2020/12/11 13:17:15;;;;;;;5.62;2.42;;;2.80;99.90;;;;;;4405083;32;20109;-58
2020/12/11 13:19:41;;;;;;;5.65;2.80;;;2.80;99.90;;;;;;4420405;32;20046;-58
2020/12/11 13:25:43;;;;;;;6.60;1.98;;;2.90;99.90;;;;;;4406492;32;20320;-53